sensor_id;sensor_type;location;lat;lon;timestamp;P1;durP1;ratioP1;P2;durP2;ratioP2
19107;SDS011;9686;48.832;9.126;2022-09-01T00:01:04;15.60;;;14.10;;
19107;SDS011;9686;48.832;9.126;2022-09-01T00:03:34;16.27;;;14.50;;
19107;SDS011;9686;48.832;9.126;2022-09-01T00:06:00;16.67;;;13.87;;
19107;SDS011;9686;48.832;9.126;2022-09-01T00:08:25;18.00;;;14.30;;
19107;SDS011;9686;48.832;9.126;2022-09-01T00:10:50;16.67;;;13.93;;
19107;SDS011;9686;48.832;9.126;2022-09-01T00:13:16;16.40;;;14.27;;
19107;SDS011;9686;48.832;9.126;2022-09-01T00:15:42;16.63;;;13.87;;
19107;SDS011;9686;48.832;9.126;2022-09-01T00:18:08;18.43;;;14.97;;
19107;SDS011;9686;48.832;9.126;2022-09-01T00:20:33;17.53;;;14.53;;
19107;SDS011;9686;48.832;9.126;2022-09-01T00:22:59;15.27;;;13.77;;
19107;SDS011;9686;48.832;9.126;2022-09-01T00:43:12;16.20;;;14.30;;
19107;SDS011;9686;48.832;9.126;2022-09-01T00:46:03;15.40;;;13.30;;
19107;SDS011;9686;48.832;9.126;2022-09-01T00:48:31;15.67;;;13.97;;
19107;SDS011;9686;48.832;9.126;2022-09-01T00:50:56;15.83;;;13.90;;
19107;SDS011;9686;48.832;9.126;2022-09-01T00:53:22;15.07;;;13.47;;
19107;SDS011;9686;48.832;9.126;2022-09-01T00:55:47;14.23;;;12.70;;
19107;SDS011;9686;48.832;9.126;2022-09-01T00:58:13;16.03;;;13.23;;
19107;SDS011;9686;48.832;9.126;2022-09-01T01:00:38;15.43;;;12.90;;
19107;SDS011;9686;48.832;9.126;2022-09-01T01:03:06;14.33;;;12.80;;
19107;SDS011;9686;48.832;9.126;2022-09-01T01:05:36;14.27;;;12.60;;
19107;SDS011;9686;48.832;9.126;2022-09-01T01:08:05;15.27;;;13.00;;
19107;SDS011;9686;48.832;9.126;2022-09-01T01:10:33;14.27;;;12.77;;
19107;SDS011;9686;48.832;9.126;2022-09-01T01:13:01;15.80;;;13.03;;
19107;SDS011;9686;48.832;9.126;2022-09-01T01:15:32;14.23;;;12.73;;
19107;SDS011;9686;48.832;9.126;2022-09-01T01:17:58;14.87;;;13.33;;
19107;SDS011;9686;48.832;9.126;2022-09-01T01:20:24;14.03;;;12.73;;
19107;SDS011;9686;48.832;9.126;2022-09-01T01:23:20;15.90;;;12.97;;
19107;SDS011;9686;48.832;9.126;2022-09-01T01:26:08;13.03;;;11.37;;
19107;SDS011;9686;48.832;9.126;2022-09-01T01:28:35;14.37;;;12.53;;
19107;SDS011;9686;48.832;9.126;2022-09-01T01:31:07;13.80;;;12.40;;
19107;SDS011;9686;48.832;9.126;2022-09-01T01:33:41;14.40;;;13.00;;
19107;SDS011;9686;48.832;9.126;2022-09-01T01:36:10;14.93;;;12.97;;
19107;SDS011;9686;48.832;9.126;2022-09-01T01:39:19;13.97;;;12.47;;
19107;SDS011;9686;48.832;9.126;2022-09-01T01:41:46;15.27;;;12.73;;
19107;SDS011;9686;48.832;9.126;2022-09-01T01:44:14;16.43;;;12.53;;
19107;SDS011;9686;48.832;9.126;2022-09-01T01:46:44;14.87;;;12.80;;
19107;SDS011;9686;48.832;9.126;2022-09-01T01:49:12;13.83;;;12.43;;
19107;SDS011;9686;48.832;9.126;2022-09-01T01:51:42;13.20;;;11.80;;
19107;SDS011;9686;48.832;9.126;2022-09-01T01:54:09;13.47;;;12.07;;
19107;SDS011;9686;48.832;9.126;2022-09-01T01:56:34;13.83;;;12.47;;
19107;SDS011;9686;48.832;9.126;2022-09-01T01:59:02;13.97;;;12.27;;
19107;SDS011;9686;48.832;9.126;2022-09-01T02:01:28;14.13;;;12.67;;
19107;SDS011;9686;48.832;9.126;2022-09-01T02:03:56;14.53;;;12.77;;
19107;SDS011;9686;48.832;9.126;2022-09-01T02:06:23;13.40;;;11.63;;
19107;SDS011;9686;48.832;9.126;2022-09-01T02:08:54;12.47;;;11.17;;
19107;SDS011;9686;48.832;9.126;2022-09-01T02:11:22;13.83;;;12.00;;
19107;SDS011;9686;48.832;9.126;2022-09-01T02:13:48;12.67;;;11.43;;
19107;SDS011;9686;48.832;9.126;2022-09-01T02:16:13;13.17;;;11.77;;
19107;SDS011;9686;48.832;9.126;2022-09-01T02:18:44;13.53;;;12.10;;
19107;SDS011;9686;48.832;9.126;2022-09-01T02:21:14;15.03;;;12.27;;
19107;SDS011;9686;48.832;9.126;2022-09-01T02:23:43;13.93;;;12.43;;
19107;SDS011;9686;48.832;9.126;2022-09-01T02:26:11;13.43;;;12.03;;
19107;SDS011;9686;48.832;9.126;2022-09-01T02:28:37;13.87;;;12.37;;
19107;SDS011;9686;48.832;9.126;2022-09-01T02:31:06;13.80;;;12.33;;
19107;SDS011;9686;48.832;9.126;2022-09-01T02:33:33;13.73;;;12.43;;
19107;SDS011;9686;48.832;9.126;2022-09-01T02:36:01;13.73;;;11.93;;
19107;SDS011;9686;48.832;9.126;2022-09-01T02:38:38;14.17;;;12.27;;
19107;SDS011;9686;48.832;9.126;2022-09-01T02:41:07;15.87;;;11.33;;
19107;SDS011;9686;48.832;9.126;2022-09-01T02:43:32;12.73;;;11.37;;
19107;SDS011;9686;48.832;9.126;2022-09-01T02:45:59;15.63;;;12.30;;
19107;SDS011;9686;48.832;9.126;2022-09-01T02:48:32;14.23;;;11.97;;
19107;SDS011;9686;48.832;9.126;2022-09-01T02:51:05;14.30;;;12.10;;
19107;SDS011;9686;48.832;9.126;2022-09-01T02:53:35;13.67;;;12.17;;
19107;SDS011;9686;48.832;9.126;2022-09-01T02:56:03;13.87;;;12.53;;
19107;SDS011;9686;48.832;9.126;2022-09-01T02:58:33;13.13;;;11.53;;
19107;SDS011;9686;48.832;9.126;2022-09-01T03:01:09;13.00;;;11.70;;
19107;SDS011;9686;48.832;9.126;2022-09-01T03:03:49;13.83;;;12.03;;
19107;SDS011;9686;48.832;9.126;2022-09-01T03:06:16;13.70;;;11.47;;
19107;SDS011;9686;48.832;9.126;2022-09-01T03:08:44;13.17;;;11.27;;
19107;SDS011;9686;48.832;9.126;2022-09-01T03:11:10;15.33;;;11.60;;
19107;SDS011;9686;48.832;9.126;2022-09-01T03:13:37;14.47;;;11.90;;
19107;SDS011;9686;48.832;9.126;2022-09-01T03:16:04;14.63;;;11.70;;
19107;SDS011;9686;48.832;9.126;2022-09-01T03:18:31;13.00;;;11.60;;
19107;SDS011;9686;48.832;9.126;2022-09-01T03:20:57;12.00;;;10.77;;
19107;SDS011;9686;48.832;9.126;2022-09-01T03:23:22;12.00;;;10.83;;
19107;SDS011;9686;48.832;9.126;2022-09-01T03:25:49;14.50;;;12.03;;
19107;SDS011;9686;48.832;9.126;2022-09-01T03:28:15;13.60;;;11.00;;
19107;SDS011;9686;48.832;9.126;2022-09-01T03:30:45;12.27;;;11.03;;
19107;SDS011;9686;48.832;9.126;2022-09-01T03:33:14;12.40;;;11.13;;
19107;SDS011;9686;48.832;9.126;2022-09-01T03:35:42;13.40;;;11.53;;
19107;SDS011;9686;48.832;9.126;2022-09-01T03:38:09;13.37;;;11.50;;
19107;SDS011;9686;48.832;9.126;2022-09-01T03:40:36;14.47;;;12.67;;
19107;SDS011;9686;48.832;9.126;2022-09-01T03:43:03;13.80;;;12.00;;
19107;SDS011;9686;48.832;9.126;2022-09-01T03:45:31;13.80;;;12.40;;
19107;SDS011;9686;48.832;9.126;2022-09-01T03:48:00;13.63;;;11.87;;
19107;SDS011;9686;48.832;9.126;2022-09-01T03:50:27;14.20;;;12.70;;
19107;SDS011;9686;48.832;9.126;2022-09-01T03:52:56;15.40;;;12.33;;
19107;SDS011;9686;48.832;9.126;2022-09-01T03:55:26;13.47;;;11.90;;
19107;SDS011;9686;48.832;9.126;2022-09-01T03:57:54;14.33;;;12.83;;
19107;SDS011;9686;48.832;9.126;2022-09-01T04:00:22;12.83;;;11.63;;
19107;SDS011;9686;48.832;9.126;2022-09-01T04:02:49;13.07;;;11.70;;
19107;SDS011;9686;48.832;9.126;2022-09-01T04:05:17;13.30;;;11.47;;
19107;SDS011;9686;48.832;9.126;2022-09-01T04:07:48;12.93;;;11.63;;
19107;SDS011;9686;48.832;9.126;2022-09-01T04:10:14;14.13;;;12.63;;
19107;SDS011;9686;48.832;9.126;2022-09-01T04:12:41;15.27;;;11.97;;
19107;SDS011;9686;48.832;9.126;2022-09-01T04:15:07;12.43;;;11.10;;
19107;SDS011;9686;48.832;9.126;2022-09-01T04:17:33;12.67;;;11.07;;
19107;SDS011;9686;48.832;9.126;2022-09-01T04:20:17;13.07;;;11.77;;
19107;SDS011;9686;48.832;9.126;2022-09-01T04:22:45;12.10;;;10.83;;
19107;SDS011;9686;48.832;9.126;2022-09-01T04:25:14;13.73;;;11.50;;
19107;SDS011;9686;48.832;9.126;2022-09-01T04:27:41;13.73;;;12.17;;
19107;SDS011;9686;48.832;9.126;2022-09-01T04:30:09;13.00;;;11.70;;
19107;SDS011;9686;48.832;9.126;2022-09-01T04:32:37;14.80;;;12.50;;
19107;SDS011;9686;48.832;9.126;2022-09-01T04:35:04;14.83;;;11.93;;
19107;SDS011;9686;48.832;9.126;2022-09-01T04:37:31;14.37;;;12.17;;
19107;SDS011;9686;48.832;9.126;2022-09-01T04:40:00;13.90;;;12.43;;
19107;SDS011;9686;48.832;9.126;2022-09-01T04:42:27;13.23;;;11.83;;
19107;SDS011;9686;48.832;9.126;2022-09-01T05:10:46;15.07;;;13.43;;
19107;SDS011;9686;48.832;9.126;2022-09-01T05:16:04;15.70;;;14.00;;
19107;SDS011;9686;48.832;9.126;2022-09-01T05:18:36;15.30;;;13.13;;
19107;SDS011;9686;48.832;9.126;2022-09-01T05:21:09;15.13;;;13.53;;
19107;SDS011;9686;48.832;9.126;2022-09-01T05:36:30;16.37;;;14.07;;
19107;SDS011;9686;48.832;9.126;2022-09-01T05:38:57;15.10;;;13.57;;
19107;SDS011;9686;48.832;9.126;2022-09-01T05:41:23;16.33;;;14.13;;
19107;SDS011;9686;48.832;9.126;2022-09-01T07:55:42;14.30;;;12.33;;
19107;SDS011;9686;48.832;9.126;2022-09-01T07:58:07;13.93;;;12.53;;
19107;SDS011;9686;48.832;9.126;2022-09-01T08:00:33;16.03;;;11.83;;
19107;SDS011;9686;48.832;9.126;2022-09-01T08:02:58;13.57;;;11.30;;
19107;SDS011;9686;48.832;9.126;2022-09-01T08:33:57;12.83;;;9.63;;
19107;SDS011;9686;48.832;9.126;2022-09-01T08:36:23;11.37;;;10.03;;
19107;SDS011;9686;48.832;9.126;2022-09-01T08:38:49;9.80;;;8.20;;
19107;SDS011;9686;48.832;9.126;2022-09-01T09:09:55;6.77;;;5.63;;
19107;SDS011;9686;48.832;9.126;2022-09-01T09:22:54;4.97;;;4.47;;
19107;SDS011;9686;48.832;9.126;2022-09-01T09:25:29;5.03;;;4.53;;
19107;SDS011;9686;48.832;9.126;2022-09-01T09:27:55;5.30;;;4.30;;
19107;SDS011;9686;48.832;9.126;2022-09-01T09:30:25;6.07;;;5.17;;
19107;SDS011;9686;48.832;9.126;2022-09-01T09:49:07;6.47;;;5.50;;
19107;SDS011;9686;48.832;9.126;2022-09-01T14:36:46;3.63;;;3.00;;
19107;SDS011;9686;48.832;9.126;2022-09-01T14:39:11;2.80;;;2.60;;
19107;SDS011;9686;48.832;9.126;2022-09-01T14:41:37;4.83;;;2.70;;
19107;SDS011;9686;48.832;9.126;2022-09-01T14:44:02;4.00;;;3.07;;
19107;SDS011;9686;48.832;9.126;2022-09-01T14:46:28;2.80;;;2.60;;
19107;SDS011;9686;48.832;9.126;2022-09-01T14:48:54;3.27;;;2.97;;
19107;SDS011;9686;48.832;9.126;2022-09-01T14:51:24;3.27;;;2.50;;
19107;SDS011;9686;48.832;9.126;2022-09-01T14:56:33;2.83;;;2.53;;
19107;SDS011;9686;48.832;9.126;2022-09-01T14:59:28;2.73;;;2.53;;
19107;SDS011;9686;48.832;9.126;2022-09-01T15:01:53;5.00;;;2.40;;
19107;SDS011;9686;48.832;9.126;2022-09-01T15:04:18;3.33;;;2.97;;
19107;SDS011;9686;48.832;9.126;2022-09-01T15:06:44;2.50;;;2.30;;
19107;SDS011;9686;48.832;9.126;2022-09-01T15:53:07;2.40;;;2.20;;
19107;SDS011;9686;48.832;9.126;2022-09-01T16:39:40;2.87;;;2.47;;
19107;SDS011;9686;48.832;9.126;2022-09-01T16:45:24;4.07;;;2.40;;
19107;SDS011;9686;48.832;9.126;2022-09-01T17:13:37;3.60;;;2.77;;
19107;SDS011;9686;48.832;9.126;2022-09-01T17:16:15;2.53;;;2.33;;
19107;SDS011;9686;48.832;9.126;2022-09-01T17:44:48;5.10;;;4.60;;
19107;SDS011;9686;48.832;9.126;2022-09-01T17:50:06;7.90;;;3.20;;
19107;SDS011;9686;48.832;9.126;2022-09-01T17:58:07;7.00;;;3.20;;
19107;SDS011;9686;48.832;9.126;2022-09-01T18:01:00;7.63;;;4.90;;
19107;SDS011;9686;48.832;9.126;2022-09-01T21:57:03;4.03;;;3.73;;
19107;SDS011;9686;48.832;9.126;2022-09-01T21:59:29;5.60;;;4.27;;
19107;SDS011;9686;48.832;9.126;2022-09-01T22:01:55;6.47;;;3.90;;
19107;SDS011;9686;48.832;9.126;2022-09-01T22:04:20;4.17;;;3.77;;
19107;SDS011;9686;48.832;9.126;2022-09-01T22:06:48;3.70;;;3.40;;
19107;SDS011;9686;48.832;9.126;2022-09-01T22:17:00;4.33;;;3.63;;
19107;SDS011;9686;48.832;9.126;2022-09-01T22:37:32;5.53;;;3.70;;
19107;SDS011;9686;48.832;9.126;2022-09-01T22:39:58;4.80;;;3.67;;
19107;SDS011;9686;48.832;9.126;2022-09-01T22:42:23;4.43;;;4.03;;
19107;SDS011;9686;48.832;9.126;2022-09-01T22:44:49;4.23;;;3.93;;
19107;SDS011;9686;48.832;9.126;2022-09-01T22:47:14;4.03;;;3.70;;
19107;SDS011;9686;48.832;9.126;2022-09-01T22:57:25;3.93;;;3.53;;
19107;SDS011;9686;48.832;9.126;2022-09-01T23:02:27;5.73;;;3.93;;
19107;SDS011;9686;48.832;9.126;2022-09-01T23:04:54;5.23;;;4.40;;
19107;SDS011;9686;48.832;9.126;2022-09-01T23:07:19;5.73;;;4.33;;
19107;SDS011;9686;48.832;9.126;2022-09-01T23:17:35;4.17;;;3.87;;
19107;SDS011;9686;48.832;9.126;2022-09-01T23:20:03;6.07;;;4.63;;
19107;SDS011;9686;48.832;9.126;2022-09-01T23:22:30;4.30;;;3.90;;
19107;SDS011;9686;48.832;9.126;2022-09-01T23:24:56;4.17;;;3.77;;
19107;SDS011;9686;48.832;9.126;2022-09-01T23:27:21;5.37;;;4.47;;
19107;SDS011;9686;48.832;9.126;2022-09-01T23:32:22;4.13;;;3.70;;
19107;SDS011;9686;48.832;9.126;2022-09-01T23:34:47;4.77;;;4.37;;
19107;SDS011;9686;48.832;9.126;2022-09-01T23:37:13;7.30;;;4.60;;
19107;SDS011;9686;48.832;9.126;2022-09-01T23:44:48;4.80;;;4.40;;
19107;SDS011;9686;48.832;9.126;2022-09-01T23:47:14;5.43;;;4.23;;
19107;SDS011;9686;48.832;9.126;2022-09-01T23:49:39;6.83;;;4.00;;
19107;SDS011;9686;48.832;9.126;2022-09-01T23:52:05;6.17;;;4.23;;
19107;SDS011;9686;48.832;9.126;2022-09-01T23:54:31;4.73;;;4.33;;
